Time;durP1;ratioP1;P1;durP2;ratioP2;P2;SDS_P1;SDS_P2;PMS_P1;PMS_P2;Temp;Humidity;BMP_temperature;BMP_pressure;BME280_temperature;BME280_humidity;BME280_pressure;Samples;Min_cycle;Max_cycle;Signal;HPM_P1;HPM_P2
2022/07/24 00:00:29;;;;;;;;;;;;;;;15.59;69.37;100877.80;1726727;83;20761;-77
2022/07/24 00:02:57;;;;;;;;;;;;;;;15.56;69.43;100884.91;1726796;83;20159;-77
2022/07/24 00:05:23;;;;;;;;;;;;;;;15.51;69.45;100882.81;1726582;82;20173;-77
2022/07/24 00:07:49;;;;;;;;;;;;;;;15.42;69.49;100883.90;1726707;82;20257;-77
2022/07/24 00:10:14;;;;;;;;;;;;;;;15.37;69.54;100887.17;1726568;83;20630;-77
2022/07/24 00:12:40;;;;;;;;;;;;;;;15.32;69.60;100889.58;1726723;82;20237;-77
2022/07/24 00:15:07;;;;;;;;;;;;;;;15.28;69.64;100893.67;1726662;82;21064;-77
2022/07/24 00:17:32;;;;;;;;;;;;;;;15.23;69.71;100893.41;1726652;83;20191;-77
2022/07/24 00:19:58;;;;;;;;;;;;;;;15.22;69.78;100901.14;1726700;83;20204;-77
2022/07/24 00:22:24;;;;;;;;;;;;;;;15.15;69.79;100896.70;1726755;82;20209;-77
2022/07/24 00:24:50;;;;;;;;;;;;;;;15.11;69.87;100902.95;1726816;82;20173;-77
2022/07/24 00:27:16;;;;;;;;;;;;;;;15.06;69.90;100898.64;1726396;82;21148;-77
2022/07/24 00:29:42;;;;;;;;;;;;;;;14.97;69.96;100897.09;1726912;83;20143;-77
2022/07/24 00:32:08;;;;;;;;;;;;;;;14.94;70.04;100902.84;1726376;81;20808;-77
2022/07/24 00:34:34;;;;;;;;;;;;;;;14.88;70.08;100902.25;1726740;82;20205;-77
2022/07/24 00:37:00;;;;;;;;;;;;;;;14.82;70.17;100905.65;1726605;82;20169;-77
2022/07/24 00:39:26;;;;;;;;;;;;;;;14.76;70.23;100899.68;1726682;83;21705;-77
2022/07/24 00:41:52;;;;;;;;;;;;;;;14.65;70.27;100900.97;1726756;82;20238;-77
2022/07/24 00:44:18;;;;;;;;;;;;;;;14.60;70.36;100905.23;1726683;82;20163;-77
2022/07/24 00:46:44;;;;;;;;;;;;;;;14.58;70.42;100903.23;1731509;81;20844;-77
2022/07/24 00:49:12;;;;;;;;;;;;;;;14.55;70.46;100900.91;1761961;81;20465;-77
2022/07/24 00:51:38;;;;;;;;;;;;;;;14.50;70.50;100910.34;1762248;81;21800;-77
2022/07/24 00:54:04;;;;;;;;;;;;;;;14.45;70.58;100903.88;1759169;81;20236;-77
2022/07/24 00:56:30;;;;;;;;;;;;;;;14.43;70.67;100909.41;1762109;81;20161;-77
2022/07/24 00:58:56;;;;;;;;;;;;;;;14.39;70.70;100909.44;1762277;81;20693;-77
2022/07/24 01:01:22;;;;;;;;;;;;;;;14.33;70.73;100911.48;1762200;81;20188;-77
2022/07/24 01:03:48;;;;;;;;;;;;;;;14.24;70.80;100913.09;1762235;81;21160;-77
2022/07/24 01:06:13;;;;;;;;;;;;;;;14.20;70.91;100913.12;1761858;81;20199;-77
2022/07/24 01:08:40;;;;;;;;;;;;;;;14.18;70.96;100911.95;1762165;81;20255;-77
2022/07/24 01:11:05;;;;;;;;;;;;;;;14.14;71.02;100912.00;1761832;81;20165;-77
2022/07/24 01:13:31;;;;;;;;;;;;;;;14.11;71.07;100912.34;1762285;81;20235;-77
2022/07/24 01:15:58;;;;;;;;;;;;;;;14.06;71.11;100912.56;1762167;81;21171;-77
2022/07/24 01:18:23;;;;;;;;;;;;;;;14.02;71.18;100916.11;1758771;81;20167;-77
2022/07/24 01:20:49;;;;;;;;;;;;;;;13.99;71.20;100919.16;1762021;81;20228;-77
2022/07/24 01:23:15;;;;;;;;;;;;;;;13.90;71.29;100918.37;1762088;81;20176;-77
2022/07/24 01:25:41;;;;;;;;;;;;;;;13.84;71.32;100916.91;1762234;81;20169;-77
2022/07/24 01:28:06;;;;;;;;;;;;;;;13.80;71.38;100924.48;1762122;81;21955;-77
2022/07/24 01:30:32;;;;;;;;;;;;;;;13.76;71.45;100920.48;1761843;81;20204;-77
2022/07/24 01:32:58;;;;;;;;;;;;;;;13.74;71.50;100917.66;1762109;81;20204;-77
2022/07/24 01:35:24;;;;;;;;;;;;;;;13.73;71.56;100914.64;1762077;81;20182;-77
2022/07/24 01:37:51;;;;;;;;;;;;;;;13.66;71.57;100912.34;1762161;81;20208;-77
2022/07/24 01:40:17;;;;;;;;;;;;;;;13.61;71.66;100913.39;1761690;81;21857;-77
2022/07/24 01:42:43;;;;;;;;;;;;;;;13.57;71.71;100914.25;1762135;81;20216;-77
2022/07/24 01:45:09;;;;;;;;;;;;;;;13.51;71.77;100915.77;1762221;81;20264;-77
2022/07/24 01:47:34;;;;;;;;;;;;;;;13.49;71.81;100917.81;1761981;81;20506;-77
2022/07/24 01:50:00;;;;;;;;;;;;;;;13.40;71.87;100912.17;1762084;81;20177;-77
2022/07/24 01:52:26;;;;;;;;;;;;;;;13.38;71.92;100916.86;1762069;81;22007;-76
2022/07/24 01:54:53;;;;;;;;;;;;;;;13.37;71.98;100927.23;1761997;81;20225;-77
2022/07/24 01:57:18;;;;;;;;;;;;;;;13.34;72.01;100924.91;1762189;81;20174;-77
2022/07/24 01:59:44;;;;;;;;;;;;;;;13.32;72.09;100926.10;1762253;81;20189;-77
2022/07/24 02:02:10;;;;;;;;;;;;;;;13.29;72.15;100929.97;1762185;81;20327;-77
2022/07/24 02:04:36;;;;;;;;;;;;;;;13.29;72.22;100923.78;1762285;81;21198;-77
2022/07/24 02:07:02;;;;;;;;;;;;;;;13.26;72.23;100925.47;1762204;81;20184;-77
2022/07/24 02:09:28;;;;;;;;;;;;;;;13.24;72.29;100926.97;1762473;81;20276;-77
2022/07/24 02:11:54;;;;;;;;;;;;;;;13.22;72.34;100928.16;1761984;81;20240;-77
2022/07/24 02:14:19;;;;;;;;;;;;;;;13.18;72.39;100927.67;1761985;81;20211;-76
2022/07/24 02:16:45;;;;;;;;;;;;;;;13.15;72.43;100928.03;1762337;81;21849;-77
2022/07/24 02:19:11;;;;;;;;;;;;;;;13.12;72.46;100933.73;1759271;81;20666;-76
2022/07/24 02:21:37;;;;;;;;;;;;;;;13.09;72.52;100936.73;1762010;81;20169;-77
2022/07/24 02:24:03;;;;;;;;;;;;;;;13.08;72.55;100937.73;1762338;81;20165;-77
2022/07/24 02:26:29;;;;;;;;;;;;;;;13.01;72.61;100932.23;1762198;81;20322;-77
2022/07/24 02:28:55;;;;;;;;;;;;;;;12.99;72.65;100942.76;1762204;81;21066;-77
2022/07/24 02:31:21;;;;;;;;;;;;;;;12.99;72.70;100936.06;1751086;81;20250;-77
2022/07/24 02:33:46;;;;;;;;;;;;;;;13.00;72.74;100939.09;1728900;83;20210;-77
2022/07/24 02:36:12;;;;;;;;;;;;;;;12.97;72.77;100933.58;1728792;83;20215;-77
2022/07/24 02:38:38;;;;;;;;;;;;;;;12.98;72.81;100947.80;1728958;83;20211;-77
2022/07/24 02:41:04;;;;;;;;;;;;;;;12.94;72.86;100946.48;1728587;81;21073;-77
2022/07/24 02:43:30;;;;;;;;;;;;;;;12.93;72.91;100947.47;1728948;83;20179;-77
2022/07/24 02:45:55;;;;;;;;;;;;;;;12.88;72.94;100956.50;1728522;83;20305;-77
2022/07/24 02:48:21;;;;;;;;;;;;;;;12.84;72.98;100964.58;1718480;82;20183;-77
2022/07/24 02:50:47;;;;;;;;;;;;;;;12.80;73.04;100967.25;1710177;84;20192;-77
2022/07/24 02:53:13;;;;;;;;;;;;;;;12.78;73.10;100967.91;1710151;84;21191;-76
2022/07/24 02:55:39;;;;;;;;;;;;;;;12.75;73.17;100972.27;1710009;84;20251;-77
2022/07/24 02:58:04;;;;;;;;;;;;;;;12.74;73.20;100966.58;1710211;84;20267;-76
2022/07/24 03:00:30;;;;;;;;;;;;;;;12.77;73.29;100971.61;1710218;84;20168;-77
2022/07/24 03:02:57;;;;;;;;;;;;;;;12.76;73.37;100972.61;1710060;84;20177;-76
2022/07/24 03:05:23;;;;;;;;;;;;;;;12.75;73.45;100977.13;1710249;84;21741;-77
2022/07/24 03:07:49;;;;;;;;;;;;;;;12.78;73.52;100970.58;1709993;82;20231;-76
2022/07/24 03:10:14;;;;;;;;;;;;;;;12.77;73.61;100976.97;1710010;84;20283;-77
2022/07/24 03:12:41;;;;;;;;;;;;;;;12.76;73.67;100985.99;1710250;84;20184;-76
2022/07/24 03:15:07;;;;;;;;;;;;;;;12.77;73.74;100984.47;1710123;84;20374;-77
2022/07/24 03:17:33;;;;;;;;;;;;;;;12.76;73.82;100991.34;1710170;84;21091;-76
2022/07/24 03:19:59;;;;;;;;;;;;;;;12.76;73.87;100991.34;1709436;84;20164;-77
2022/07/24 03:22:25;;;;;;;;;;;;;;;12.78;73.91;101000.03;1710159;84;20451;-77
2022/07/24 03:24:50;;;;;;;;;;;;;;;12.76;73.97;100990.00;1710105;84;20254;-77
2022/07/24 03:27:16;;;;;;;;;;;;;;;12.80;74.03;100991.34;1709762;84;20176;-76
2022/07/24 03:29:42;;;;;;;;;;;;;;;12.84;74.08;100996.16;1710350;84;21095;-76
2022/07/24 03:32:08;;;;;;;;;;;;;;;12.87;74.11;100993.67;1710039;84;20286;-77
2022/07/24 03:34:33;;;;;;;;;;;;;;;12.91;74.17;100993.67;1710190;84;20262;-77
2022/07/24 03:36:59;;;;;;;;;;;;;;;12.94;74.21;100993.33;1709920;84;20160;-77
2022/07/24 03:39:25;;;;;;;;;;;;;;;12.98;74.26;101001.35;1710195;84;20152;-77
2022/07/24 03:41:51;;;;;;;;;;;;;;;12.99;74.26;101003.84;1709903;84;21818;-77
2022/07/24 03:44:17;;;;;;;;;;;;;;;13.00;74.30;100997.98;1710017;84;20251;-77
2022/07/24 03:46:43;;;;;;;;;;;;;;;13.08;74.34;100997.14;1709879;84;20207;-77
2022/07/24 03:49:09;;;;;;;;;;;;;;;13.14;74.35;100998.66;1711417;84;20639;-77
2022/07/24 03:51:37;;;;;;;;;;;;;;;13.19;74.37;100986.94;1712200;83;20192;-77
2022/07/24 03:54:03;;;;;;;;;;;;;;;13.27;74.42;100989.56;1712062;83;21202;-77
2022/07/24 03:56:29;;;;;;;;;;;;;;;13.40;74.46;100987.20;1712159;83;20199;-77
2022/07/24 03:58:55;;;;;;;;;;;;;;;13.71;74.68;100995.75;1711650;84;20610;-76
2022/07/24 04:01:22;;;;;;;;;;;;;;;14.57;75.07;100994.16;1712142;84;20247;-77
2022/07/24 04:03:48;;;;;;;;;;;;;;;15.64;75.03;100989.66;1712113;84;20173;-77
2022/07/24 04:06:13;;;;;;;;;;;;;;;16.88;74.55;100990.92;1712221;83;21159;-77
2022/07/24 04:08:39;;;;;;;;;;;;;;;17.91;74.08;100994.05;1712081;84;21273;-77
2022/07/24 04:11:07;;;;;;;;;;;;;;;18.98;73.44;100984.00;1712203;83;20290;-77
2022/07/24 04:13:33;;;;;;;;;;;;;;;19.83;72.76;100986.46;1712235;83;20161;-77
2022/07/24 04:15:59;;;;;;;;;;;;;;;20.71;71.91;100982.45;1712099;84;20215;-77
2022/07/24 04:18:25;;;;;;;;;;;;;;;21.39;70.99;100989.48;1712131;84;21148;-77
2022/07/24 04:20:51;;;;;;;;;;;;;;;21.54;70.13;100986.91;1711853;84;20207;-77
2022/07/24 04:23:17;;;;;;;;;;;;;;;21.83;69.58;100984.78;1711916;83;20173;-77
2022/07/24 04:25:43;;;;;;;;;;;;;;;22.16;68.65;100995.23;1712072;84;20213;-77
2022/07/24 04:28:08;;;;;;;;;;;;;;;22.55;67.70;100992.44;1711907;84;20215;-77
2022/07/24 04:30:34;;;;;;;;;;;;;;;22.38;66.76;100991.73;1712061;84;21427;-77
2022/07/24 04:33:00;;;;;;;;;;;;;;;22.41;66.17;100991.27;1711936;84;20191;-77
2022/07/24 04:35:26;;;;;;;;;;;;;;;22.72;65.59;101000.23;1712137;84;20822;-77
2022/07/24 04:37:52;;;;;;;;;;;;;;;22.66;64.57;100995.70;1733446;82;21045;-77
2022/07/24 04:40:17;;;;;;;;;;;;;;;22.76;63.95;101002.78;1741651;81;20257;-78
2022/07/24 04:42:43;;;;;;;;;;;;;;;23.15;63.38;101007.50;1741579;82;21500;-77
2022/07/24 04:45:09;;;;;;;;;;;;;;;23.05;62.22;101016.79;1740958;82;20205;-77
2022/07/24 04:47:35;;;;;;;;;;;;;;;22.72;61.26;101011.11;1741570;81;20214;-78
2022/07/24 04:50:02;;;;;;;;;;;;;;;22.34;61.13;101012.28;1741086;82;20305;-78
2022/07/24 04:52:27;;;;;;;;;;;;;;;21.67;61.39;101011.22;1741577;82;20132;-78
2022/07/24 04:54:53;;;;;;;;;;;;;;;21.46;61.72;101021.17;1741377;82;21397;-78
2022/07/24 04:57:19;;;;;;;;;;;;;;;21.24;61.85;101024.32;1741517;81;20788;-78
2022/07/24 04:59:45;;;;;;;;;;;;;;;21.17;62.07;101027.63;1741336;82;20189;-78
2022/07/24 05:02:11;;;;;;;;;;;;;;;21.15;62.02;101020.22;1741558;82;20888;-78
2022/07/24 05:04:36;;;;;;;;;;;;;;;21.02;62.05;101021.69;1741528;81;20178;-78
2022/07/24 05:07:03;;;;;;;;;;;;;;;21.03;61.90;101026.06;1741602;82;21374;-78
2022/07/24 05:09:29;;;;;;;;;;;;;;;20.92;61.81;101022.72;1741447;82;20497;-78
2022/07/24 05:11:54;;;;;;;;;;;;;;;20.71;61.80;101028.53;1741453;81;20193;-78
2022/07/24 05:14:20;;;;;;;;;;;;;;;20.88;61.74;101025.05;1741765;82;20183;-78
2022/07/24 05:16:46;;;;;;;;;;;;;;;21.11;61.59;101024.43;1741509;81;20790;-78
2022/07/24 05:19:12;;;;;;;;;;;;;;;21.33;61.43;101037.05;1741473;81;20646;-78
2022/07/24 05:21:38;;;;;;;;;;;;;;;21.39;61.26;101030.20;1741124;81;20143;-78
2022/07/24 05:24:04;;;;;;;;;;;;;;;21.52;60.99;101029.76;1730048;82;20227;-78
2022/07/24 05:26:31;;;;;;;;;;;;;;;21.39;60.78;101038.33;1711959;84;20315;-78
2022/07/24 05:29:02;;;;;;;;;;;;;;;21.39;60.52;101032.91;1712031;83;20161;-78
2022/07/24 05:31:28;;;;;;;;;;;;;;;21.43;60.34;101029.77;1711137;82;21575;-78
2022/07/24 05:33:54;;;;;;;;;;;;;;;21.44;60.08;101033.59;1710383;84;20203;-78
2022/07/24 05:36:20;;;;;;;;;;;;;;;21.41;59.95;101029.98;1710393;84;20283;-78
2022/07/24 05:38:46;;;;;;;;;;;;;;;21.47;59.68;101033.66;1710499;84;20263;-78
2022/07/24 05:41:12;;;;;;;;;;;;;;;21.54;59.50;101031.70;1710678;82;20160;-78
2022/07/24 05:43:38;;;;;;;;;;;;;;;21.61;59.22;101037.89;1710127;84;21372;-78
2022/07/24 05:46:04;;;;;;;;;;;;;;;21.45;58.91;101031.72;1709907;84;20373;-78
2022/07/24 05:48:30;;;;;;;;;;;;;;;21.39;58.59;101035.62;1709487;82;20149;-78
2022/07/24 05:50:56;;;;;;;;;;;;;;;21.27;58.31;101031.17;1709465;82;20301;-78
2022/07/24 05:53:22;;;;;;;;;;;;;;;21.40;58.30;101032.38;1709775;84;20219;-78
2022/07/24 05:55:48;;;;;;;;;;;;;;;21.54;58.12;101022.20;1709245;82;21298;-78
2022/07/24 05:58:14;;;;;;;;;;;;;;;21.61;57.89;101021.59;1710210;84;20165;-78
2022/07/24 06:00:40;;;;;;;;;;;;;;;21.70;57.61;101022.97;1710756;82;20192;-78
2022/07/24 06:03:06;;;;;;;;;;;;;;;21.66;57.29;101029.38;1710604;84;20745;-78
2022/07/24 06:05:32;;;;;;;;;;;;;;;21.62;56.98;101023.27;1710661;84;20176;-78
2022/07/24 06:07:57;;;;;;;;;;;;;;;21.56;56.79;101024.19;1710463;82;21430;-78
2022/07/24 06:10:23;;;;;;;;;;;;;;;21.72;56.61;101035.78;1710750;84;20407;-78
2022/07/24 06:12:49;;;;;;;;;;;;;;;21.70;56.32;101039.27;1709859;84;20204;-79
2022/07/24 06:15:15;;;;;;;;;;;;;;;21.63;56.07;101035.80;1710589;84;20219;-78
2022/07/24 06:17:41;;;;;;;;;;;;;;;21.60;55.69;101034.89;1710639;84;20192;-79
2022/07/24 06:20:08;;;;;;;;;;;;;;;21.54;55.47;101044.75;1710615;82;21253;-78
2022/07/24 06:22:34;;;;;;;;;;;;;;;21.71;55.30;101042.29;1710363;84;20157;-78
2022/07/24 06:24:59;;;;;;;;;;;;;;;21.80;55.01;101043.10;1710691;84;20732;-78
2022/07/24 06:27:25;;;;;;;;;;;;;;;21.70;54.66;101037.91;1710720;84;20464;-78
2022/07/24 06:29:51;;;;;;;;;;;;;;;21.74;54.53;101037.76;1710513;82;20152;-78
2022/07/24 06:32:17;;;;;;;;;;;;;;;21.76;54.27;101043.78;1730368;82;21460;-78
2022/07/24 06:34:43;;;;;;;;;;;;;;;21.77;54.08;101040.84;1736894;82;20204;-78
2022/07/24 06:37:09;;;;;;;;;;;;;;;21.80;53.97;101039.55;1736878;82;20248;-78
2022/07/24 06:39:35;;;;;;;;;;;;;;;21.87;53.85;101037.58;1736994;81;20327;-78
2022/07/24 06:42:00;;;;;;;;;;;;;;;21.92;53.70;101048.61;1737164;82;20252;-78
2022/07/24 06:44:26;;;;;;;;;;;;;;;21.91;53.54;101040.18;1737141;81;21432;-78
2022/07/24 06:46:52;;;;;;;;;;;;;;;21.97;53.48;101039.26;1736841;82;20482;-78
2022/07/24 06:49:18;;;;;;;;;;;;;;;22.01;53.30;101032.31;1738392;82;20220;-78
2022/07/24 06:51:44;;;;;;;;;;;;;;;22.07;53.18;101044.97;1740158;82;20321;-78
2022/07/24 06:54:10;;;;;;;;;;;;;;;21.92;52.89;101052.68;1740604;82;20259;-78
2022/07/24 06:56:36;;;;;;;;;;;;;;;21.65;52.69;101058.11;1740752;82;22048;-78
2022/07/24 06:59:01;;;;;;;;;;;;;;;21.60;52.70;101057.45;1740512;82;20193;-78
2022/07/24 07:01:27;;;;;;;;;;;;;;;21.70;52.64;101056.91;1740681;82;20260;-78
2022/07/24 07:03:53;;;;;;;;;;;;;;;21.81;52.64;101056.16;1740508;82;20224;-78
2022/07/24 07:06:20;;;;;;;;;;;;;;;21.99;52.53;101053.42;1756222;81;20235;-78
2022/07/24 07:08:46;;;;;;;;;;;;;;;22.06;52.34;101055.53;1756685;81;21926;-78
2022/07/24 07:11:12;;;;;;;;;;;;;;;22.04;52.26;101053.58;1756048;81;20369;-78
2022/07/24 07:13:37;;;;;;;;;;;;;;;22.06;52.11;101062.32;1756158;81;20195;-78
2022/07/24 07:16:04;;;;;;;;;;;;;;;22.07;52.16;101051.77;1756152;81;20255;-78
2022/07/24 07:18:30;;;;;;;;;;;;;;;22.20;52.07;101054.29;1756212;81;20535;-78
2022/07/24 07:20:56;;;;;;;;;;;;;;;22.37;51.94;101049.89;1755973;81;21394;-77
2022/07/24 07:23:22;;;;;;;;;;;;;;;22.53;51.85;101051.11;1756168;81;20169;-78
2022/07/24 07:25:48;;;;;;;;;;;;;;;22.62;51.73;101040.73;1756064;81;20189;-78
2022/07/24 07:28:14;;;;;;;;;;;;;;;22.67;51.54;101039.52;1756168;81;20363;-78
2022/07/24 07:30:40;;;;;;;;;;;;;;;22.74;51.37;101047.05;1756060;81;20800;-78
2022/07/24 07:33:06;;;;;;;;;;;;;;;22.61;50.94;101048.59;1756127;81;22191;-78
2022/07/24 07:35:32;;;;;;;;;;;;;;;22.58;50.94;101047.70;1755993;81;20290;-78
2022/07/24 07:37:58;;;;;;;;;;;;;;;22.66;50.77;101045.45;1756179;81;20271;-78
2022/07/24 07:40:25;;;;;;;;;;;;;;;22.82;50.67;101043.98;1756066;81;20453;-78
2022/07/24 07:42:50;;;;;;;;;;;;;;;23.03;50.46;101032.53;1755904;81;20192;-78
2022/07/24 07:45:16;;;;;;;;;;;;;;;23.09;50.23;101035.66;1756309;81;21635;-78
2022/07/24 07:47:42;;;;;;;;;;;;;;;22.64;49.83;101038.59;1755907;81;20450;-78
2022/07/24 07:50:09;;;;;;;;;;;;;;;22.83;49.92;101038.86;1748838;81;20240;-78
2022/07/24 07:52:35;;;;;;;;;;;;;;;22.69;49.51;101038.77;1744405;82;20479;-78
2022/07/24 07:55:01;;;;;;;;;;;;;;;22.74;49.50;101038.36;1745098;82;20189;-78
2022/07/24 07:57:27;;;;;;;;;;;;;;;22.69;49.25;101034.17;1745075;81;22451;-78
2022/07/24 07:59:53;;;;;;;;;;;;;;;22.89;49.18;101041.98;1744943;82;20199;-78
2022/07/24 08:02:19;;;;;;;;;;;;;;;23.10;48.88;101045.49;1745024;82;20227;-78
2022/07/24 08:04:44;;;;;;;;;;;;;;;23.04;48.55;101043.73;1744654;82;20753;-78
2022/07/24 08:07:10;;;;;;;;;;;;;;;22.50;48.43;101048.02;1744934;82;20264;-78
2022/07/24 08:09:37;;;;;;;;;;;;;;;22.47;48.56;101040.34;1744951;82;21465;-78
2022/07/24 08:12:04;;;;;;;;;;;;;;;22.76;48.38;101039.50;1744937;82;20182;-78
2022/07/24 08:14:30;;;;;;;;;;;;;;;23.05;48.30;101041.80;1744975;82;20185;-78
2022/07/24 08:16:55;;;;;;;;;;;;;;;23.28;48.13;101052.19;1744812;82;20569;-78
2022/07/24 08:19:21;;;;;;;;;;;;;;;23.49;48.00;101041.25;1744872;81;20780;-78
2022/07/24 08:21:47;;;;;;;;;;;;;;;23.66;47.75;101048.13;1744528;82;22486;-78
2022/07/24 08:24:13;;;;;;;;;;;;;;;23.35;47.49;101043.36;1744891;82;20321;-78
2022/07/24 08:26:39;;;;;;;;;;;;;;;23.43;47.49;101041.38;1744235;81;20244;-78
2022/07/24 08:29:05;;;;;;;;;;;;;;;23.25;46.97;101043.14;1744935;81;20599;-78
2022/07/24 08:31:31;;;;;;;;;;;;;;;22.67;46.85;101047.68;1744907;82;20241;-79
2022/07/24 08:33:57;;;;;;;;;;;;;;;22.76;47.07;101043.58;1744819;81;22301;-78
2022/07/24 08:36:22;;;;;;;;;;;;;;;23.16;47.05;101049.15;1744658;82;20228;-78
2022/07/24 08:38:48;;;;;;;;;;;;;;;23.38;46.79;101042.88;1744476;82;20208;-78
2022/07/24 08:41:14;;;;;;;;;;;;;;;23.52;46.57;101052.19;1745039;82;20542;-78
2022/07/24 08:43:41;;;;;;;;;;;;;;;23.68;46.40;101046.02;1744598;82;20220;-79
2022/07/24 08:46:08;;;;;;;;;;;;;;;23.75;45.96;101049.44;1744923;82;21683;-79
2022/07/24 08:48:34;;;;;;;;;;;;;;;23.60;45.58;101046.38;1744816;82;20193;-79
2022/07/24 08:51:00;;;;;;;;;;;;;;;23.63;45.41;101043.17;1765433;81;20286;-79
2022/07/24 08:53:26;;;;;;;;;;;;;;;23.56;45.27;101039.22;1769240;81;21298;-79
2022/07/24 08:55:52;;;;;;;;;;;;;;;23.70;45.23;101035.70;1769380;80;20200;-79
2022/07/24 08:58:18;;;;;;;;;;;;;;;23.86;45.14;101043.94;1769299;80;21676;-79
2022/07/24 09:00:43;;;;;;;;;;;;;;;23.76;44.94;101045.62;1769212;81;20767;-79
2022/07/24 09:03:09;;;;;;;;;;;;;;;23.72;44.91;101048.52;1769289;80;20233;-79
2022/07/24 09:05:40;;;;;;;;;;;;;;;23.62;44.86;101038.78;1769036;81;20604;-79
2022/07/24 09:08:10;;;;;;;;;;;;;;;23.56;44.76;101038.39;1763267;81;20196;-78
2022/07/24 09:10:36;;;;;;;;;;;;;;;23.66;44.73;101042.69;1769287;81;22595;-79
2022/07/24 09:13:15;;;;;;;;;;;;;;;23.82;44.76;101042.76;1769196;81;20203;-79
2022/07/24 09:15:45;;;;;;;;;;;;;;;24.08;44.64;101038.66;1769485;81;20192;-79
2022/07/24 09:18:13;;;;;;;;;;;;;;;24.11;44.42;101034.60;1769167;81;20697;-79
2022/07/24 09:20:39;;;;;;;;;;;;;;;24.12;44.34;101038.99;1741004;81;20199;-79
2022/07/24 09:23:04;;;;;;;;;;;;;;;23.93;43.98;101040.23;1769369;81;21807;-79
2022/07/24 09:25:30;;;;;;;;;;;;;;;23.98;44.09;101037.63;1769245;81;20203;-79
2022/07/24 09:27:58;;;;;;;;;;;;;;;24.03;43.97;101038.54;1769338;80;20739;-79
2022/07/24 09:30:34;;;;;;;;;;;;;;;24.00;43.88;101044.48;1769322;81;21209;-79
2022/07/24 09:33:04;;;;;;;;;;;;;;;24.00;43.89;101036.83;1769406;81;20199;-79
2022/07/24 09:35:40;;;;;;;;;;;;;;;24.24;43.95;101041.98;1769291;81;21832;-79
2022/07/24 09:38:09;;;;;;;;;;;;;;;24.18;43.77;101037.52;1742484;81;20183;-79
2022/07/24 09:40:37;;;;;;;;;;;;;;;24.18;43.76;101035.31;1768552;81;20191;-79
2022/07/24 09:43:22;;;;;;;;;;;;;;;24.32;43.57;101031.22;1769352;81;20459;-79
2022/07/24 09:45:55;;;;;;;;;;;;;;;24.16;43.17;101036.94;1769365;81;20172;-79
2022/07/24 09:48:22;;;;;;;;;;;;;;;24.08;43.08;101037.29;1769024;81;21681;-79
2022/07/24 09:50:50;;;;;;;;;;;;;;;24.02;43.06;101039.63;1753459;81;20200;-79
2022/07/24 09:53:20;;;;;;;;;;;;;;;23.89;42.95;101043.98;1744634;82;20137;-79
2022/07/24 09:56:06;;;;;;;;;;;;;;;24.00;43.06;101036.83;1744876;82;20574;-79
2022/07/24 09:58:34;;;;;;;;;;;;;;;24.15;43.10;101030.36;1745093;82;20481;-79
2022/07/24 10:01:00;;;;;;;;;;;;;;;24.45;43.07;101036.39;1744947;82;21873;-79
2022/07/24 10:03:30;;;;;;;;;;;;;;;24.65;42.99;101031.28;1745002;81;20200;-79
2022/07/24 10:05:59;;;;;;;;;;;;;;;24.51;42.61;101037.30;1744829;82;20189;-79
2022/07/24 10:08:25;;;;;;;;;;;;;;;24.42;42.62;101027.88;1744711;82;20629;-79
2022/07/24 10:10:51;;;;;;;;;;;;;;;24.31;42.47;101030.39;1744914;82;20181;-79
2022/07/24 10:13:17;;;;;;;;;;;;;;;24.28;42.28;101028.16;1744675;82;22488;-79
2022/07/24 10:15:53;;;;;;;;;;;;;;;24.31;42.32;101028.23;1744998;82;20186;-79
2022/07/24 10:18:19;;;;;;;;;;;;;;;24.38;42.20;101029.70;1744878;82;20445;-79
2022/07/24 10:20:45;;;;;;;;;;;;;;;24.56;42.23;101023.76;1744816;82;20573;-80
2022/07/24 10:23:28;;;;;;;;;;;;;;;24.71;42.10;101028.09;1744797;82;20192;-79
2022/07/24 10:26:06;;;;;;;;;;;;;;;24.74;41.99;101024.33;1744968;82;21748;-79
2022/07/24 10:28:41;;;;;;;;;;;;;;;24.84;41.91;101023.69;1745021;81;20197;-79
2022/07/24 10:31:12;;;;;;;;;;;;;;;24.93;41.77;101019.48;1743548;81;20209;-79
2022/07/24 10:33:40;;;;;;;;;;;;;;;24.99;41.58;101023.11;1744955;81;20719;-79
2022/07/24 10:36:17;;;;;;;;;;;;;;;25.04;41.41;101020.47;1744947;82;20493;-79
2022/07/24 10:38:46;;;;;;;;;;;;;;;25.05;41.31;101020.20;1745237;81;21733;-79
2022/07/24 10:41:14;;;;;;;;;;;;;;;25.10;41.14;101020.83;1744853;82;20485;-79
2022/07/24 10:43:40;;;;;;;;;;;;;;;24.96;40.94;101018.98;1744853;81;20457;-79
2022/07/24 10:46:10;;;;;;;;;;;;;;;24.90;40.74;101022.72;1745043;81;20631;-79
2022/07/24 10:48:35;;;;;;;;;;;;;;;24.88;40.65;101023.48;1744719;82;20174;-79
2022/07/24 10:51:07;;;;;;;;;;;;;;;24.90;40.63;101015.89;1744778;81;21739;-79
2022/07/24 10:53:43;;;;;;;;;;;;;;;24.82;40.44;101017.63;1744890;82;20176;-79
2022/07/24 10:56:17;;;;;;;;;;;;;;;24.76;40.44;101017.27;1744201;82;20413;-79
2022/07/24 10:59:02;;;;;;;;;;;;;;;24.81;40.24;101018.70;1744976;82;20684;-79
2022/07/24 11:01:37;;;;;;;;;;;;;;;24.89;40.13;101025.14;1744981;82;20152;-79
2022/07/24 11:04:05;;;;;;;;;;;;;;;24.91;39.92;101014.80;1744920;82;21975;-79
2022/07/24 11:06:43;;;;;;;;;;;;;;;24.96;39.62;101016.25;1740544;82;20113;-79
2022/07/24 11:09:09;;;;;;;;;;;;;;;24.97;39.34;101019.81;1744297;82;20175;-79
2022/07/24 11:11:40;;;;;;;;;;;;;;;24.96;39.19;101016.25;1744984;82;20570;-79
2022/07/24 11:14:06;;;;;;;;;;;;;;;25.02;39.04;101016.61;1745000;82;20191;-80
2022/07/24 11:16:32;;;;;;;;;;;;;;;25.13;38.94;101008.86;1745104;81;22590;-79
2022/07/24 11:19:05;;;;;;;;;;;;;;;25.35;38.79;101008.38;1744410;82;20096;-79
2022/07/24 11:21:37;;;;;;;;;;;;;;;25.42;38.65;101012.28;1744649;82;20164;-79
2022/07/24 11:24:20;;;;;;;;;;;;;;;25.56;38.53;101008.12;1743888;82;21430;-79
2022/07/24 11:26:51;;;;;;;;;;;;;;;25.76;38.34;100996.08;1744852;82;20156;-79
2022/07/24 11:29:27;;;;;;;;;;;;;;;25.68;37.90;100998.45;1744966;82;21931;-79
2022/07/24 11:31:57;;;;;;;;;;;;;;;25.54;37.55;100996.64;1744804;82;20168;-79
2022/07/24 11:34:24;;;;;;;;;;;;;;;25.41;37.51;100993.40;1744713;82;20116;-79
2022/07/24 11:36:51;;;;;;;;;;;;;;;25.52;37.48;100996.05;1744898;82;20596;-79
2022/07/24 11:39:18;;;;;;;;;;;;;;;25.44;37.06;100984.73;1744796;82;20152;-80
2022/07/24 11:41:49;;;;;;;;;;;;;;;25.45;36.60;100995.92;1744957;82;21845;-79
2022/07/24 11:44:28;;;;;;;;;;;;;;;25.51;36.60;101000.42;1744664;81;20170;-79
2022/07/24 11:46:56;;;;;;;;;;;;;;;25.52;36.64;100996.05;1745020;82;20272;-79
2022/07/24 11:49:22;;;;;;;;;;;;;;;25.70;36.74;100988.91;1744786;82;20613;-79
2022/07/24 11:51:50;;;;;;;;;;;;;;;25.81;36.55;100984.39;1755978;81;20286;-79
2022/07/24 11:54:21;;;;;;;;;;;;;;;25.86;36.36;100985.83;1758749;81;21891;-79
2022/07/24 11:56:48;;;;;;;;;;;;;;;25.90;36.17;100984.20;1758639;80;20144;-79
2022/07/24 11:59:28;;;;;;;;;;;;;;;26.02;36.14;100982.16;1758647;81;20314;-79
2022/07/24 12:02:06;;;;;;;;;;;;;;;26.18;35.96;100985.35;1758785;80;20777;-79
2022/07/24 12:04:31;;;;;;;;;;;;;;;26.08;35.74;100981.12;1758743;81;20167;-79
2022/07/24 12:06:57;;;;;;;;;;;;;;;26.09;35.57;100977.31;1758760;80;21323;-80
2022/07/24 12:09:23;;;;;;;;;;;;;;;26.09;35.46;100980.05;1758641;80;20456;-79
2022/07/24 12:11:49;;;;;;;;;;;;;;;26.00;35.26;100967.91;1758738;81;20202;-79
2022/07/24 12:14:16;;;;;;;;;;;;;;;25.99;35.25;100971.75;1758764;81;20336;-79
2022/07/24 12:16:42;;;;;;;;;;;;;;;25.96;35.13;100973.63;1758958;81;20132;-79
2022/07/24 12:19:18;;;;;;;;;;;;;;;25.89;35.01;100974.38;1758720;81;21845;-79
2022/07/24 12:21:44;;;;;;;;;;;;;;;25.97;35.06;100972.52;1758521;81;20809;-79
2022/07/24 12:24:10;;;;;;;;;;;;;;;26.14;35.06;100969.14;1758808;81;20641;-79
2022/07/24 12:26:52;;;;;;;;;;;;;;;26.21;35.00;100958.85;1758776;80;20624;-79
2022/07/24 12:29:19;;;;;;;;;;;;;;;26.25;34.96;100961.36;1758842;81;20167;-79
2022/07/24 12:31:44;;;;;;;;;;;;;;;26.20;34.88;100957.22;1758821;80;21801;-79
2022/07/24 12:34:10;;;;;;;;;;;;;;;26.24;34.90;100956.99;1758659;81;20738;-79